Accueil
METAR-TAF:

METAR-TAF

Aéroports :

Aéroport de Calvi-Sainte-Catherine

Calvi, France

latitude: 42-32N, longitude: 008-48E, altitude: 64 m

Observation

Le bulletin a été fait il y a 13 minutes, à 23:00 UTC
Vent 5 kt de sud
Température 18°C
Humidité 88%
Pression 1012 hPa
Visibilité 10 km ou plus
pas de nuages en-dessous de 1500 mètres et pas de cumulonimbus.

METAR: LFKC 222300Z AUTO 17005KT CAVOK 18/16 Q1012

Heure: 01:13 (23:13 UTC)

Prévision

Le bulletin a été fait il y a 9 heures et 13 minutes, à 14:00 UTC
Prévision valable du 22 à 15 UTC au 23 à 15 UTC
Vent 8 kt de nord
Visibilité 10 km ou plus
pas de nuages en-dessous de 1500 mètres et pas de cumulonimbus.
Evoluant progressivement
du 22 à 20 UTC au 22 à 22 UTC
Vent 4 kt de sud
Evoluant progressivement
du 23 à 10 UTC au 23 à 12 UTC
Vent 10 kt de nord

TAF: LFKC 221400Z 2215/2315 35008KT CAVOK TX29/2312Z TN16/2303Z BECMG 2220/2222 18004KT BECMG 2310/2312 35010KT

Observations et prévisions météorologiques de plus de 4000 aéroports (messages METAR et TAF).

Les stations disponibles sont représentées par des disques jaunes et rouges sur la carte.

Passer la souris dessus pour voir le nom de la station.

Cliquer dessus pour voir les observations et prévisions météorologiques.

Pour changer de carte: cliquez sur les boutons verts avec une croix noire pour zoomer, sur le bouton vert avec un tiret pour effectuer un zoom arrière, ou sur les flèches vertes pour les cartes adjacentes.


METAR-TAF: